Dexter, MI (48130)

9:47 AM EST on January 23, 2017 (GMT -0500)
Huron Farms - Noble | | Change Station

Elev 900 ft 42.33 °N, 83.87 °W | Updated 4 seconds ago

Overcast
Overcast
40.5 °F
Feels Like 40 °F
N
2.0
Wind Variable Wind from ENE

Today
High -- | Low -- °F
--% Chance of Precip.
Yesterday
High -- | Low -- °F
Precip. -- in
Pressure 29.66 in
Visibility 3.0 miles
Clouds Overcast 300 ft
Windchill 40 °F
Dew Point 40 °F
Humidity 98%
Rainfall 0.00 in
Snow Depth Not available.
7:56 AM 5:38 PM
Waning Crescent, 18% visible
SPECI KARB 231417Z 02005KT 3SM -RA BR OVC003 05/05 A2966 RMK AO2 P0001 T00500050
Pressure 29.66 in
Visibility 3.0 miles
Clouds Overcast 300 ft
Windchill 40 °F
Dew Point 40 °F
Humidity 98%
Rainfall 0.00 in
Snow Depth Not available.
7:56 AM 5:38 PM
Waning Crescent, 18% visible
SPECI KARB 231417Z 02005KT 3SM -RA BR OVC003 05/05 A2966 RMK AO2 P0001 T00500050

Get Your Daily Forecast Email!

Thanks for signing up!

Be on the lookout for a verification email in your inbox.

You'll start receiving the daily forecast at 8 AM.

×

10-Day Weather Forecast

Almanac

Astronomy

Jan. 23, 2017 Rise Set
Actual Time
Civil Twilight
Nautical Twilight
Astronomical Twilight
Moon
Length of Visible Light
Length of Day
Tomorrow will be .
, % of the Moon is Illuminated

Today's Extremes

State Highs State Lows

Community

WunderPhotos

Upload Photos

1,962,540 photos uploaded!

WunderBlog® & News

Nearby

Air Quality

  Air Quality AQ Index Pollutant
Not available.

Snow Depth

Station Depth Elevation

Earthquake Activity

City Distance Mag. Time & Date
Minimum magnitude displayed is 2.5.

Coastal Water Temperatures

Place Temperature

Stations

Nearby Weather Stations

Station Location Temp. Windchill Dew Point Humidity Wind Precip. Elev Updated Type
                   

Watches & Warnings

There are currently no watches in effect.